Winfield, Tennessee
Current Conditions -  °F | °C
As of 8:56 AM on Thursday 23 Oct 2014 (Local Time) from KEKQ Reporting Station
Overcast Overcast  
Wind Chill: 45°   Ceiling: 2200
Heat Index: 48°   Visibility: 10mi
Dew Point: 42°   Wind: 6mph
Humidity: 80%   Direction: 100°E
Pressure: 30.25"   Gusts: NA
Location:  36.56°N, 84.45°W
Report Text: KEKQ 231256Z AUTO 10005KT 10SM OVC022 09/06 A3025 RMK AO2 T00880055 SLP251
Loading
Personal Weather Stations






























Interactive Weather Map
Tropical Storm Tracking
New forecast layout! Learn more

10-Day Weather Forecast

Advertisements
Track Severe Weather on mobile